David F Stone — WCZ6032 — position and weather

sailwx.info

Track history (hours):
 
Tides and Currents Weather Stations Pressure Air Temp Water Temp Dewpoint Dewpoint Depression Visibility Wind Speed Wind Dir Waves Ship Positions

David F Stone

Owner: Blessey Enterprises, Inc., HARAHAN, LA. More information available from US FCC via Universal Licensing System and Coast Guard Vessel Documentation Center.

Last reported at 2017-Sep-19 21:08 UTC. Time now 2017-Sep-20 02:08 UTC.
Position N 29°47' W 095°05'.

Length 20 m.

Type: Ship. MMSI: 366935420.

Date/timePositionNaut miles runAvg speedWind from/ knotsBaromVisibWave heightAir tempDewpointWater temp
2017-Sep-19 21:08N 29°47' W 095°05'0 0.0
2017-Sep-19 20:55N 29°47' W 095°05'0 0.0
2017-Sep-19 20:26N 29°47' W 095°05'1 0.7
2017-Sep-19 18:20N 29°46' W 095°05'0 0.6
2017-Sep-19 17:43N 29°46' W 095°05'2 0.4
2017-Sep-19 13:43N 29°44' W 095°07'1 5.9
2017-Sep-19 13:29N 29°44' W 095°08'4 0.4
2017-Sep-19 03:15N 29°44' W 095°12'0 0.0
2017-Sep-19 02:59N 29°44' W 095°12'0 0.0
2017-Sep-19 02:29N 29°44' W 095°12'0 0.0
2017-Sep-18 15:28N 29°44' W 095°12'3 5.1
2017-Sep-18 14:57N 29°44' W 095°09'3 5.4
2017-Sep-18 14:25N 29°45' W 095°06'1 0.0
2017-Sep-16 17:33N 29°45' W 095°06'  
2017-Sep-14 13:23N 29°46' W 095°05'3 7.0
2017-Sep-14 12:59N 29°44' W 095°02'3 6.7
2017-Sep-14 12:30N 29°42' W 094°60'4 8.1
2017-Sep-14 12:00N 29°38' W 094°58'3 6.0
2017-Sep-14 11:30N 29°37' W 095°01'0 0.8
2017-Sep-14 11:00N 29°36' W 095°01'0 0.0
2017-Sep-14 10:30N 29°36' W 095°01'0 0.0
2017-Sep-14 10:00N 29°36' W 095°01'0 0.0
2017-Sep-14 09:30N 29°36' W 095°01'0 0.0
2017-Sep-14 09:00N 29°36' W 095°01'0 0.0
2017-Sep-14 08:30N 29°36' W 095°01'0 0.0
2017-Sep-14 07:59N 29°36' W 095°01'0 0.0
2017-Sep-14 07:30N 29°36' W 095°01'0 0.0
2017-Sep-14 07:00N 29°36' W 095°01'0 0.0
2017-Sep-14 06:30N 29°36' W 095°01'0 0.0
2017-Sep-14 06:00N 29°36' W 095°01'0 0.0
2017-Sep-14 05:30N 29°36' W 095°01'0 0.0
2017-Sep-14 05:00N 29°36' W 095°01'0 0.0
2017-Sep-14 04:29N 29°36' W 095°01'0 0.0
2017-Sep-14 04:00N 29°36' W 095°01'0 0.0
2017-Sep-14 03:30N 29°36' W 095°01'0 0.0
2017-Sep-14 02:59N 29°36' W 095°01'0 0.0
2017-Sep-14 02:30N 29°36' W 095°01'0 0.0
2017-Sep-14 02:00N 29°36' W 095°01'0 0.0
2017-Sep-14 01:30N 29°36' W 095°01'0 0.0
2017-Sep-14 01:00N 29°36' W 095°01'0 0.0
2017-Sep-14 00:30N 29°36' W 095°01'0 0.0
2017-Sep-13 23:59N 29°36' W 095°01'0 0.0
2017-Sep-13 23:30N 29°36' W 095°01'0 0.0
2017-Sep-13 23:00N 29°36' W 095°01'0 0.0
2017-Sep-13 22:30N 29°36' W 095°01'0 0.0
2017-Sep-13 22:00N 29°36' W 095°01'0 0.0
2017-Sep-13 21:30N 29°36' W 095°01'0 0.0
2017-Sep-13 21:00N 29°36' W 095°01'0 0.0
2017-Sep-13 20:30N 29°36' W 095°01'0 0.0
2017-Sep-13 20:00N 29°36' W 095°01'0 0.0
2017-Sep-13 19:30N 29°36' W 095°01'0 0.0
2017-Sep-13 19:00N 29°36' W 095°01'0 0.0
2017-Sep-13 18:30N 29°36' W 095°01'0 0.0
2017-Sep-13 18:00N 29°36' W 095°01'0 0.0
2017-Sep-13 17:30N 29°36' W 095°01'0 0.0
2017-Sep-13 17:00N 29°36' W 095°01'0 0.0
2017-Sep-13 16:30N 29°36' W 095°01'0 0.0
2017-Sep-13 15:59N 29°36' W 095°01'0 0.0
2017-Sep-13 15:30N 29°36' W 095°01'0 0.0
2017-Sep-13 15:00N 29°36' W 095°01'0 0.0
2017-Sep-13 14:30N 29°36' W 095°01'0 0.0
2017-Sep-13 14:00N 29°36' W 095°01'0 0.0
2017-Sep-13 13:30N 29°36' W 095°01'0 0.0
2017-Sep-13 13:00N 29°36' W 095°01'0 0.0
2017-Sep-13 12:30N 29°36' W 095°01'0 0.0
2017-Sep-13 12:00N 29°36' W 095°01'0 0.0
2017-Sep-13 11:29N 29°36' W 095°01'0 0.0
2017-Sep-13 11:00N 29°36' W 095°01'0 0.0
2017-Sep-13 10:30N 29°36' W 095°01'0 0.0
2017-Sep-13 10:00N 29°36' W 095°01'0 0.0
2017-Sep-13 09:30N 29°36' W 095°01'0 0.0
2017-Sep-13 09:00N 29°36' W 095°01'0 0.0
2017-Sep-13 08:30N 29°36' W 095°01'0 0.0
2017-Sep-13 08:00N 29°36' W 095°01'0 0.6
2017-Sep-13 07:30N 29°37' W 095°01'0 0.1
2017-Sep-13 07:00N 29°37' W 095°01'0 0.0
2017-Sep-13 06:30N 29°37' W 095°01'0 0.0
2017-Sep-13 06:00N 29°37' W 095°01'0 0.0
2017-Sep-13 05:30N 29°37' W 095°01'0 0.0
2017-Sep-13 05:00N 29°37' W 095°01'0 0.0
2017-Sep-13 04:30N 29°37' W 095°01'0 0.0
2017-Sep-13 04:00N 29°37' W 095°01'0 0.0
2017-Sep-13 03:30N 29°37' W 095°01'0 0.0
2017-Sep-13 03:00N 29°37' W 095°01'0 0.0
2017-Sep-13 02:30N 29°37' W 095°01'0 0.0
2017-Sep-13 02:00N 29°37' W 095°01'0 0.0
2017-Sep-13 01:30N 29°37' W 095°01'0 0.0
2017-Sep-13 01:00N 29°37' W 095°01'0 0.0
2017-Sep-13 00:30N 29°37' W 095°01'0 0.0
2017-Sep-13 00:00N 29°37' W 095°01'0 0.0
2017-Sep-12 23:30N 29°37' W 095°01'0 0.0
2017-Sep-12 23:00N 29°37' W 095°01'2 4.2
2017-Sep-12 22:30N 29°37' W 094°59'3 5.6
2017-Sep-12 22:00N 29°40' W 094°58'4 7.5
2017-Sep-12 21:30N 29°43' W 095°01'4 7.7
2017-Sep-12 21:00N 29°45' W 095°04'2 0.5
2017-Sep-12 17:13N 29°47' W 095°05'0 0.0
2017-Sep-12 16:51N 29°47' W 095°05'0 0.0
2017-Sep-12 11:59N 29°47' W 095°05'0 0.6
2017-Sep-12 11:29N 29°47' W 095°04'2 1.6
2017-Sep-12 10:06N 29°45' W 095°06'1 6.7
2017-Sep-12 09:57N 29°46' W 095°05'3 0.1
2017-Sep-10 14:40N 29°44' W 095°08'0 0.0
2017-Sep-10 12:22N 29°44' W 095°08'0 0.0
2017-Sep-10 11:57N 29°44' W 095°08'0 0.0
2017-Sep-10 10:53N 29°44' W 095°08'0 0.0
2017-Sep-10 10:23N 29°44' W 095°08'0 0.0
2017-Sep-10 10:00N 29°44' W 095°08'0 0.0
2017-Sep-10 09:30N 29°44' W 095°08'0 0.0
2017-Sep-10 09:00N 29°44' W 095°08'0 0.0
2017-Sep-10 08:30N 29°44' W 095°08'0 0.0
2017-Sep-10 07:59N 29°44' W 095°08'0 0.0
2017-Sep-10 07:30N 29°44' W 095°08'0 0.0
2017-Sep-10 07:00N 29°44' W 095°08'0 0.0
2017-Sep-10 06:30N 29°44' W 095°08'0 0.0
2017-Sep-10 05:59N 29°44' W 095°08'0 0.6
2017-Sep-10 05:29N 29°44' W 095°07'2 3.9
2017-Sep-10 05:00N 29°45' W 095°06'2 2.1
2017-Sep-10 03:59N 29°47' W 095°05'2 0.3
2017-Sep-09 22:24N 29°46' W 095°05'  
Track history (hours):
 
Tides and Currents Weather Stations Pressure Air Temp Water Temp Dewpoint Dewpoint Depression Visibility Wind Speed Wind Dir Waves Ship Positions

David F Stone

Owner: Blessey Enterprises, Inc., HARAHAN, LA. More information available from US FCC via Universal Licensing System and Coast Guard Vessel Documentation Center.

Last reported at 2017-Sep-19 21:08 UTC. Time now 2017-Sep-20 02:08 UTC.
Position N 29°47' W 095°05'.

Length 20 m.

Type: Ship. MMSI: 366935420.

Date/timePositionNaut miles runAvg speedWind from/ knotsBaromVisibWave heightAir tempDewpointWater temp
2017-Sep-19 21:08N 29°47' W 095°05'0 0.0
2017-Sep-19 20:55N 29°47' W 095°05'0 0.0
2017-Sep-19 20:26N 29°47' W 095°05'1 0.7
2017-Sep-19 18:20N 29°46' W 095°05'0 0.6
2017-Sep-19 17:43N 29°46' W 095°05'2 0.4
2017-Sep-19 13:43N 29°44' W 095°07'1 5.9
2017-Sep-19 13:29N 29°44' W 095°08'4 0.4
2017-Sep-19 03:15N 29°44' W 095°12'0 0.0
2017-Sep-19 02:59N 29°44' W 095°12'0 0.0
2017-Sep-19 02:29N 29°44' W 095°12'0 0.0
2017-Sep-18 15:28N 29°44' W 095°12'3 5.1
2017-Sep-18 14:57N 29°44' W 095°09'3 5.4
2017-Sep-18 14:25N 29°45' W 095°06'1 0.0
2017-Sep-16 17:33N 29°45' W 095°06'  
2017-Sep-14 13:23N 29°46' W 095°05'3 7.0
2017-Sep-14 12:59N 29°44' W 095°02'3 6.7
2017-Sep-14 12:30N 29°42' W 094°60'4 8.1
2017-Sep-14 12:00N 29°38' W 094°58'3 6.0
2017-Sep-14 11:30N 29°37' W 095°01'0 0.8
2017-Sep-14 11:00N 29°36' W 095°01'0 0.0
2017-Sep-14 10:30N 29°36' W 095°01'0 0.0
2017-Sep-14 10:00N 29°36' W 095°01'0 0.0
2017-Sep-14 09:30N 29°36' W 095°01'0 0.0
2017-Sep-14 09:00N 29°36' W 095°01'0 0.0
2017-Sep-14 08:30N 29°36' W 095°01'0 0.0
2017-Sep-14 07:59N 29°36' W 095°01'0 0.0
2017-Sep-14 07:30N 29°36' W 095°01'0 0.0
2017-Sep-14 07:00N 29°36' W 095°01'0 0.0
2017-Sep-14 06:30N 29°36' W 095°01'0 0.0
2017-Sep-14 06:00N 29°36' W 095°01'0 0.0
2017-Sep-14 05:30N 29°36' W 095°01'0 0.0
2017-Sep-14 05:00N 29°36' W 095°01'0 0.0
2017-Sep-14 04:29N 29°36' W 095°01'0 0.0
2017-Sep-14 04:00N 29°36' W 095°01'0 0.0
2017-Sep-14 03:30N 29°36' W 095°01'0 0.0
2017-Sep-14 02:59N 29°36' W 095°01'0 0.0
2017-Sep-14 02:30N 29°36' W 095°01'0 0.0
2017-Sep-14 02:00N 29°36' W 095°01'0 0.0
2017-Sep-14 01:30N 29°36' W 095°01'0 0.0
2017-Sep-14 01:00N 29°36' W 095°01'0 0.0
2017-Sep-14 00:30N 29°36' W 095°01'0 0.0
2017-Sep-13 23:59N 29°36' W 095°01'0 0.0
2017-Sep-13 23:30N 29°36' W 095°01'0 0.0
2017-Sep-13 23:00N 29°36' W 095°01'0 0.0
2017-Sep-13 22:30N 29°36' W 095°01'0 0.0
2017-Sep-13 22:00N 29°36' W 095°01'0 0.0
2017-Sep-13 21:30N 29°36' W 095°01'0 0.0
2017-Sep-13 21:00N 29°36' W 095°01'0 0.0
2017-Sep-13 20:30N 29°36' W 095°01'0 0.0
2017-Sep-13 20:00N 29°36' W 095°01'0 0.0
2017-Sep-13 19:30N 29°36' W 095°01'0 0.0
2017-Sep-13 19:00N 29°36' W 095°01'0 0.0
2017-Sep-13 18:30N 29°36' W 095°01'0 0.0
2017-Sep-13 18:00N 29°36' W 095°01'0 0.0
2017-Sep-13 17:30N 29°36' W 095°01'0 0.0
2017-Sep-13 17:00N 29°36' W 095°01'0 0.0
2017-Sep-13 16:30N 29°36' W 095°01'0 0.0
2017-Sep-13 15:59N 29°36' W 095°01'0 0.0
2017-Sep-13 15:30N 29°36' W 095°01'0 0.0
2017-Sep-13 15:00N 29°36' W 095°01'0 0.0
2017-Sep-13 14:30N 29°36' W 095°01'0 0.0
2017-Sep-13 14:00N 29°36' W 095°01'0 0.0
2017-Sep-13 13:30N 29°36' W 095°01'0 0.0
2017-Sep-13 13:00N 29°36' W 095°01'0 0.0
2017-Sep-13 12:30N 29°36' W 095°01'0 0.0
2017-Sep-13 12:00N 29°36' W 095°01'0 0.0
2017-Sep-13 11:29N 29°36' W 095°01'0 0.0
2017-Sep-13 11:00N 29°36' W 095°01'0 0.0
2017-Sep-13 10:30N 29°36' W 095°01'0 0.0
2017-Sep-13 10:00N 29°36' W 095°01'0 0.0
2017-Sep-13 09:30N 29°36' W 095°01'0 0.0
2017-Sep-13 09:00N 29°36' W 095°01'0 0.0
2017-Sep-13 08:30N 29°36' W 095°01'0 0.0
2017-Sep-13 08:00N 29°36' W 095°01'0 0.6
2017-Sep-13 07:30N 29°37' W 095°01'0 0.1
2017-Sep-13 07:00N 29°37' W 095°01'0 0.0
2017-Sep-13 06:30N 29°37' W 095°01'0 0.0
2017-Sep-13 06:00N 29°37' W 095°01'0 0.0
2017-Sep-13 05:30N 29°37' W 095°01'0 0.0
2017-Sep-13 05:00N 29°37' W 095°01'0 0.0
2017-Sep-13 04:30N 29°37' W 095°01'0 0.0
2017-Sep-13 04:00N 29°37' W 095°01'0 0.0
2017-Sep-13 03:30N 29°37' W 095°01'0 0.0
2017-Sep-13 03:00N 29°37' W 095°01'0 0.0
2017-Sep-13 02:30N 29°37' W 095°01'0 0.0
2017-Sep-13 02:00N 29°37' W 095°01'0 0.0
2017-Sep-13 01:30N 29°37' W 095°01'0 0.0
2017-Sep-13 01:00N 29°37' W 095°01'0 0.0
2017-Sep-13 00:30N 29°37' W 095°01'0 0.0
2017-Sep-13 00:00N 29°37' W 095°01'0 0.0
2017-Sep-12 23:30N 29°37' W 095°01'0 0.0
2017-Sep-12 23:00N 29°37' W 095°01'2 4.2
2017-Sep-12 22:30N 29°37' W 094°59'3 5.6
2017-Sep-12 22:00N 29°40' W 094°58'4 7.5
2017-Sep-12 21:30N 29°43' W 095°01'4 7.7
2017-Sep-12 21:00N 29°45' W 095°04'2 0.5
2017-Sep-12 17:13N 29°47' W 095°05'0 0.0
2017-Sep-12 16:51N 29°47' W 095°05'0 0.0
2017-Sep-12 11:59N 29°47' W 095°05'0 0.6
2017-Sep-12 11:29N 29°47' W 095°04'2 1.6
2017-Sep-12 10:06N 29°45' W 095°06'1 6.7
2017-Sep-12 09:57N 29°46' W 095°05'3 0.1
2017-Sep-10 14:40N 29°44' W 095°08'0 0.0
2017-Sep-10 12:22N 29°44' W 095°08'0 0.0
2017-Sep-10 11:57N 29°44' W 095°08'0 0.0
2017-Sep-10 10:53N 29°44' W 095°08'0 0.0
2017-Sep-10 10:23N 29°44' W 095°08'0 0.0
2017-Sep-10 10:00N 29°44' W 095°08'0 0.0
2017-Sep-10 09:30N 29°44' W 095°08'0 0.0
2017-Sep-10 09:00N 29°44' W 095°08'0 0.0
2017-Sep-10 08:30N 29°44' W 095°08'0 0.0
2017-Sep-10 07:59N 29°44' W 095°08'0 0.0
2017-Sep-10 07:30N 29°44' W 095°08'0 0.0
2017-Sep-10 07:00N 29°44' W 095°08'0 0.0
2017-Sep-10 06:30N 29°44' W 095°08'0 0.0
2017-Sep-10 05:59N 29°44' W 095°08'0 0.6
2017-Sep-10 05:29N 29°44' W 095°07'2 3.9
2017-Sep-10 05:00N 29°45' W 095°06'2 2.1
2017-Sep-10 03:59N 29°47' W 095°05'2 0.3
2017-Sep-09 22:24N 29°46' W 095°05'  

Dump ship's entire track history